createdAt,value
2018-08-03T00:00:05.891Z,22.52
2018-08-03T00:01:05.930Z,22.49
2018-08-03T00:02:05.968Z,22.52
2018-08-03T00:03:06.004Z,22.51
2018-08-03T00:04:06.043Z,22.58
2018-08-03T00:05:06.080Z,22.42
2018-08-03T00:06:06.118Z,22.45
2018-08-03T00:07:06.157Z,22.40
2018-08-03T00:08:06.193Z,22.40
2018-08-03T00:09:06.231Z,22.27
2018-08-03T00:10:06.271Z,22.25
2018-08-03T00:11:06.306Z,22.27
2018-08-03T00:12:06.344Z,22.31
2018-08-03T00:13:06.382Z,22.36
2018-08-03T00:14:06.423Z,22.35
2018-08-03T00:15:06.456Z,22.43
2018-08-03T00:16:06.494Z,22.45
2018-08-03T00:17:06.533Z,22.37
2018-08-03T00:18:06.569Z,22.49
2018-08-03T00:19:06.611Z,22.45
2018-08-03T00:20:06.646Z,22.47
2018-08-03T00:21:06.683Z,22.39
2018-08-03T00:22:06.721Z,22.35
2018-08-03T00:23:06.758Z,22.36
2018-08-03T00:24:06.796Z,22.39
2018-08-03T00:25:06.836Z,22.36
2018-08-03T00:26:06.872Z,22.28
2018-08-03T00:27:06.909Z,22.35
2018-08-03T00:28:06.946Z,22.37
2018-08-03T00:29:06.984Z,22.28
2018-08-03T00:30:07.022Z,22.30
2018-08-03T00:31:07.061Z,22.35
2018-08-03T00:32:07.097Z,22.28
2018-08-03T00:33:07.135Z,22.30
2018-08-03T00:34:07.172Z,22.33
2018-08-03T00:35:07.209Z,22.36
2018-08-03T00:36:07.246Z,22.40
2018-08-03T00:37:07.284Z,22.37
2018-08-03T00:38:07.323Z,22.37
2018-08-03T00:39:07.359Z,22.42
2018-08-03T00:40:07.398Z,22.30
2018-08-03T00:41:07.436Z,22.37
2018-08-03T00:42:07.474Z,22.25
2018-08-03T00:43:07.511Z,22.28
2018-08-03T00:44:07.547Z,22.28
2018-08-03T00:45:07.586Z,22.27
2018-08-03T00:46:07.624Z,22.25
2018-08-03T00:47:07.660Z,22.33
2018-08-03T00:48:07.699Z,22.37
2018-08-03T00:49:07.735Z,22.31
2018-08-03T00:50:07.773Z,22.37
2018-08-03T00:51:08.618Z,22.31
2018-08-03T00:52:07.848Z,22.35
2018-08-03T00:53:07.885Z,22.27
2018-08-03T00:54:07.924Z,22.28
2018-08-03T00:55:07.962Z,22.31
2018-08-03T00:56:07.998Z,22.28
2018-08-03T00:57:08.036Z,22.28
2018-08-03T00:58:08.073Z,22.27
2018-08-03T00:59:08.110Z,22.25
2018-08-03T01:00:08.147Z,22.27
2018-08-03T01:01:08.186Z,22.25
2018-08-03T01:02:08.223Z,22.31
2018-08-03T01:03:08.260Z,22.31
2018-08-03T01:04:08.297Z,22.30
2018-08-03T01:05:08.351Z,22.21
2018-08-03T01:06:08.373Z,22.25
2018-08-03T01:07:08.410Z,22.18
2018-08-03T01:08:08.447Z,22.18
2018-08-03T01:09:08.485Z,22.24
2018-08-03T01:10:08.522Z,22.24
2018-08-03T01:11:08.559Z,22.25
2018-08-03T01:12:08.596Z,22.31
2018-08-03T01:13:08.638Z,22.31
2018-08-03T01:14:08.672Z,22.24
2018-08-03T01:15:08.707Z,22.20
2018-08-03T01:16:08.746Z,22.25
2018-08-03T01:17:08.784Z,22.21
2018-08-03T01:18:08.823Z,22.14
2018-08-03T01:19:08.860Z,22.18
2018-08-03T01:20:08.896Z,22.21
2018-08-03T01:21:08.934Z,22.21
2018-08-03T01:22:08.971Z,22.17
2018-08-03T01:23:09.008Z,22.15
2018-08-03T01:24:09.045Z,22.18
2018-08-03T01:25:09.084Z,22.09
2018-08-03T01:26:09.121Z,22.03
2018-08-03T01:27:09.157Z,22.10
2018-08-03T01:28:09.194Z,22.06
2018-08-03T01:29:09.235Z,22.15
2018-08-03T01:30:09.269Z,22.03
2018-08-03T01:31:09.306Z,22.05
2018-08-03T01:32:09.367Z,22.02
2018-08-03T01:33:09.608Z,21.98
2018-08-03T01:35:22.045Z,21.96
2018-08-03T01:36:22.082Z,22.03
2018-08-03T01:37:22.118Z,21.94
2018-08-03T01:38:22.156Z,21.88
2018-08-03T01:39:22.192Z,21.86
2018-08-03T01:40:22.232Z,21.82
2018-08-03T01:41:22.270Z,21.83
2018-08-03T01:42:22.307Z,21.75
2018-08-03T01:43:22.341Z,21.69
2018-08-03T01:44:22.379Z,21.74
2018-08-03T01:45:22.416Z,21.71
2018-08-03T01:46:22.456Z,21.68
2018-08-03T01:47:22.490Z,21.64
2018-08-03T01:48:22.528Z,21.68
2018-08-03T01:49:22.566Z,21.53
2018-08-03T01:50:22.602Z,21.56
2018-08-03T01:51:22.638Z,21.46
2018-08-03T01:52:22.677Z,21.38
2018-08-03T01:53:22.712Z,21.42
2018-08-03T01:54:22.750Z,21.42
2018-08-03T01:55:22.787Z,21.37
2018-08-03T01:57:22.860Z,21.25
2018-08-03T01:58:22.898Z,21.25
2018-08-03T01:59:22.935Z,21.24
2018-08-03T02:00:22.973Z,21.27
2018-08-03T02:01:23.009Z,21.27
2018-08-03T02:02:23.046Z,21.29
2018-08-03T02:03:23.135Z,21.24
2018-08-03T02:04:23.121Z,21.27
2018-08-03T02:05:23.157Z,21.34
2018-08-03T02:06:23.194Z,21.24
2018-08-03T02:07:23.252Z,21.24
2018-08-03T02:08:23.268Z,21.25
2018-08-03T02:09:23.305Z,21.35
2018-08-03T02:10:23.342Z,21.42
2018-08-03T02:11:23.380Z,21.40
2018-08-03T02:12:23.419Z,21.44
2018-08-03T02:13:23.453Z,21.49
2018-08-03T02:14:23.491Z,21.52
2018-08-03T02:15:23.527Z,21.52
2018-08-03T02:16:23.564Z,21.53
2018-08-03T02:17:23.599Z,21.59
2018-08-03T02:18:23.640Z,21.58
2018-08-03T02:19:23.675Z,21.61
2018-08-03T02:20:23.712Z,21.61
2018-08-03T02:21:23.748Z,21.58
2018-08-03T02:22:23.785Z,21.54
2018-08-03T02:23:23.822Z,21.58
2018-08-03T02:24:23.861Z,21.56
2018-08-03T02:25:23.896Z,21.59
2018-08-03T02:26:23.933Z,21.58
2018-08-03T02:27:23.971Z,21.54
2018-08-03T02:28:24.009Z,21.58
2018-08-03T02:29:24.043Z,21.62
2018-08-03T02:30:24.081Z,21.56
2018-08-03T02:31:24.119Z,21.49
2018-08-03T02:32:24.155Z,21.59
2018-08-03T02:33:24.192Z,21.50
2018-08-03T02:34:24.228Z,21.56
2018-08-03T02:35:24.266Z,21.44
2018-08-03T02:36:24.303Z,21.40
2018-08-03T02:37:24.341Z,21.42
2018-08-03T02:38:24.376Z,21.47
2018-08-03T02:39:24.414Z,21.31
2018-08-03T02:40:24.452Z,21.40
2018-08-03T02:41:24.485Z,21.40
2018-08-03T02:42:24.523Z,21.27
2018-08-03T02:43:24.561Z,21.29
2018-08-03T02:44:24.602Z,21.27
2018-08-03T02:45:24.635Z,21.16
2018-08-03T02:46:24.671Z,21.17
2018-08-03T02:47:24.717Z,21.14
2018-08-03T02:48:24.745Z,21.09
2018-08-03T02:49:24.782Z,21.07
2018-08-03T02:50:24.818Z,21.06
2018-08-03T02:51:24.855Z,20.91
2018-08-03T02:52:24.892Z,20.92
2018-08-03T02:53:24.928Z,20.92
2018-08-03T02:54:24.967Z,20.92
2018-08-03T02:55:25.002Z,20.94
2018-08-03T02:56:25.039Z,20.89
2018-08-03T02:57:25.074Z,20.94
2018-08-03T02:58:25.112Z,20.94
2018-08-03T02:59:25.151Z,20.95
2018-08-03T03:00:25.186Z,21.04
2018-08-03T03:01:25.223Z,21.07
2018-08-03T03:02:25.258Z,21.12
2018-08-03T03:03:25.300Z,21.12
2018-08-03T03:04:25.338Z,21.16
2018-08-03T03:05:25.371Z,21.13
2018-08-03T03:06:25.407Z,21.09
2018-08-03T03:07:25.482Z,21.07
2018-08-03T03:08:25.481Z,21.12
2018-08-03T03:09:25.516Z,21.10
2018-08-03T03:10:25.554Z,21.16
2018-08-03T03:11:25.590Z,21.21
2018-08-03T03:12:25.626Z,21.14
2018-08-03T03:13:25.663Z,21.19
2018-08-03T03:14:25.702Z,21.19
2018-08-03T03:15:25.737Z,21.13
2018-08-03T03:16:25.774Z,21.17
2018-08-03T03:17:25.810Z,21.17
2018-08-03T03:18:25.847Z,21.21
2018-08-03T03:19:25.963Z,21.09
2018-08-03T03:20:25.921Z,21.07
2018-08-03T03:21:25.960Z,21.21
2018-08-03T03:22:25.995Z,21.17
2018-08-03T03:23:26.033Z,21.19
2018-08-03T03:24:26.067Z,21.17
2018-08-03T03:25:26.107Z,21.24
2018-08-03T03:26:26.142Z,21.16
2018-08-03T03:27:26.177Z,21.04
2018-08-03T03:28:26.213Z,21.10
2018-08-03T03:29:26.249Z,21.07
2018-08-03T03:30:26.287Z,21.03
2018-08-03T03:31:26.324Z,20.95
2018-08-03T03:32:26.360Z,20.99
2018-08-03T03:33:26.400Z,20.99
2018-08-03T03:34:26.433Z,20.94
2018-08-03T03:35:26.469Z,20.95
2018-08-03T03:36:26.508Z,20.99
2018-08-03T03:37:26.543Z,20.99
2018-08-03T03:38:26.579Z,21.01
2018-08-03T03:39:26.620Z,20.99
2018-08-03T03:40:26.654Z,21.01
2018-08-03T03:41:26.688Z,21.01
2018-08-03T03:42:26.727Z,21.03
2018-08-03T03:43:26.762Z,21.01
2018-08-03T03:44:26.805Z,21.10
2018-08-03T03:45:26.844Z,20.98
2018-08-03T03:46:26.872Z,20.99
2018-08-03T03:47:26.909Z,21.06
2018-08-03T03:48:26.945Z,20.89
2018-08-03T03:49:26.983Z,20.79
2018-08-03T03:50:27.019Z,20.77
2018-08-03T03:51:27.056Z,20.66
2018-08-03T03:52:27.094Z,20.52
2018-08-03T03:53:27.128Z,20.29
2018-08-03T03:54:27.166Z,20.36
2018-08-03T03:55:27.201Z,20.32
2018-08-03T03:56:27.238Z,20.39
2018-08-03T03:57:27.275Z,20.54
2018-08-03T03:58:27.312Z,20.62
2018-08-03T03:59:27.348Z,20.62
2018-08-03T04:00:27.384Z,20.59
2018-08-03T04:01:27.421Z,20.77
2018-08-03T04:02:27.457Z,20.74
2018-08-03T04:03:27.494Z,20.77
2018-08-03T04:04:27.556Z,20.84
2018-08-03T04:05:27.566Z,20.82
2018-08-03T04:06:27.602Z,20.85
2018-08-03T04:07:27.640Z,20.87
2018-08-03T04:08:27.678Z,20.79
2018-08-03T04:09:27.733Z,20.82
2018-08-03T04:10:27.761Z,20.79
2018-08-03T04:11:27.785Z,20.88
2018-08-03T04:12:28.352Z,20.92
2018-08-03T04:13:27.857Z,20.94
2018-08-03T04:15:27.931Z,20.82
2018-08-03T04:16:27.990Z,20.79
2018-08-03T04:17:28.029Z,20.77
2018-08-03T04:18:28.065Z,20.76
2018-08-03T04:19:28.099Z,20.76
2018-08-03T04:20:28.141Z,20.79
2018-08-03T04:21:28.173Z,20.74
2018-08-03T04:23:28.244Z,20.76
2018-08-03T04:25:28.314Z,20.85
2018-08-03T04:26:28.559Z,20.94
2018-08-03T04:27:28.370Z,20.91
2018-08-03T04:28:28.709Z,20.88
2018-08-03T04:29:28.868Z,20.89
2018-08-03T04:30:28.502Z,20.88
2018-08-03T04:32:28.778Z,20.91
2018-08-03T04:34:28.644Z,20.73
2018-08-03T04:36:29.122Z,20.52
2018-08-03T04:37:29.164Z,20.50
2018-08-03T04:38:28.993Z,20.41
2018-08-03T04:39:28.829Z,20.39
2018-08-03T04:41:28.900Z,20.50
2018-08-03T04:45:29.353Z,20.58
2018-08-03T04:47:29.326Z,20.57
2018-08-03T04:48:29.159Z,20.50
2018-08-03T04:49:29.192Z,20.54
2018-08-03T04:50:29.432Z,20.64
2018-08-03T04:51:29.267Z,20.59
2018-08-03T04:52:29.504Z,20.61
2018-08-03T04:53:29.341Z,20.64
2018-08-03T04:54:29.577Z,20.84
2018-08-03T04:55:29.411Z,20.84
2018-08-03T04:56:29.653Z,20.80
2018-08-03T04:59:29.535Z,20.91
2018-08-03T05:00:29.572Z,20.95
2018-08-03T05:01:29.607Z,20.92
2018-08-03T05:02:29.644Z,20.97
2018-08-03T05:03:29.681Z,21.06
2018-08-03T05:04:29.718Z,21.16
2018-08-03T05:05:29.755Z,21.25
2018-08-03T05:06:29.790Z,21.21
2018-08-03T05:07:29.827Z,21.24
2018-08-03T05:08:29.864Z,21.29
2018-08-03T05:09:29.900Z,21.31
2018-08-03T05:10:29.937Z,21.46
2018-08-03T05:11:29.974Z,21.34
2018-08-03T05:12:30.012Z,21.46
2018-08-03T05:13:30.051Z,21.54
2018-08-03T05:14:30.085Z,21.61
2018-08-03T05:15:30.145Z,21.69
2018-08-03T05:16:30.158Z,21.71
2018-08-03T05:17:30.193Z,21.71
2018-08-03T05:18:30.235Z,21.79
2018-08-03T05:19:30.268Z,21.79
2018-08-03T05:20:30.305Z,21.86
2018-08-03T05:21:30.342Z,21.98
2018-08-03T05:22:30.378Z,22.00
2018-08-03T05:23:30.415Z,22.03
2018-08-03T05:24:30.453Z,22.00
2018-08-03T05:25:30.489Z,22.10
2018-08-03T05:26:30.525Z,22.05
2018-08-03T05:27:30.562Z,22.15
2018-08-03T05:28:30.601Z,22.12
2018-08-03T05:29:30.637Z,22.02
2018-08-03T05:30:30.675Z,22.10
2018-08-03T05:31:30.712Z,22.05
2018-08-03T05:32:30.748Z,22.02
2018-08-03T05:33:30.785Z,21.92
2018-08-03T05:34:30.823Z,22.02
2018-08-03T05:35:30.949Z,22.02
2018-08-03T05:36:30.902Z,22.03
2018-08-03T05:37:30.938Z,22.15
2018-08-03T05:38:30.972Z,22.21
2018-08-03T05:39:31.010Z,22.20
2018-08-03T05:40:31.047Z,22.25
2018-08-03T05:41:31.083Z,22.31
2018-08-03T05:42:31.165Z,22.43
2018-08-03T05:43:31.160Z,22.57
2018-08-03T05:44:31.196Z,22.72
2018-08-03T05:45:31.248Z,22.73
2018-08-03T05:46:31.273Z,22.70
2018-08-03T05:47:31.309Z,22.61
2018-08-03T05:48:31.346Z,22.43
2018-08-03T05:49:31.381Z,22.43
2018-08-03T05:50:31.423Z,22.61
2018-08-03T05:51:31.459Z,22.68
2018-08-03T05:52:31.576Z,22.88
2018-08-03T05:53:31.534Z,22.98
2018-08-03T05:54:31.572Z,23.07
2018-08-03T05:55:31.609Z,23.10
2018-08-03T05:56:31.648Z,23.28
2018-08-03T05:57:31.684Z,23.31
2018-08-03T05:58:31.723Z,23.31
2018-08-03T05:59:31.763Z,23.31
2018-08-03T06:00:31.798Z,23.31
2018-08-03T06:01:31.835Z,23.36
2018-08-03T06:02:31.874Z,23.35
2018-08-03T06:03:31.912Z,23.46
2018-08-03T06:04:31.950Z,23.57
2018-08-03T06:05:31.987Z,23.70
2018-08-03T06:06:32.026Z,23.73
2018-08-03T06:07:32.064Z,23.70
2018-08-03T06:08:32.102Z,23.88
2018-08-03T06:09:32.147Z,23.85
2018-08-03T06:10:32.178Z,24.02
2018-08-03T06:11:32.216Z,24.00
2018-08-03T06:12:32.255Z,24.13
2018-08-03T06:13:32.292Z,24.20
2018-08-03T06:14:32.330Z,24.24
2018-08-03T06:15:32.369Z,24.20
2018-08-03T06:16:32.408Z,24.31
2018-08-03T06:17:32.445Z,24.35
2018-08-03T06:18:32.484Z,24.45
2018-08-03T06:19:32.523Z,24.45
2018-08-03T06:20:32.577Z,24.57
2018-08-03T06:21:32.598Z,24.58
2018-08-03T06:22:32.637Z,24.52
2018-08-03T06:23:32.679Z,24.65
2018-08-03T06:24:32.715Z,24.65
2018-08-03T06:25:32.753Z,24.71
2018-08-03T06:26:32.791Z,24.71
2018-08-03T06:27:32.830Z,24.71
2018-08-03T06:28:32.896Z,24.83
2018-08-03T06:29:32.951Z,24.95
2018-08-03T06:30:32.946Z,24.99
2018-08-03T06:31:32.986Z,25.00
2018-08-03T06:32:33.022Z,25.14
2018-08-03T06:33:33.061Z,25.28
2018-08-03T06:34:33.101Z,25.35
2018-08-03T06:35:33.140Z,25.40
2018-08-03T06:36:33.179Z,25.40
2018-08-03T06:37:33.216Z,25.45
2018-08-03T06:38:33.257Z,25.45
2018-08-03T06:39:33.297Z,25.47
2018-08-03T06:40:33.336Z,25.55
2018-08-03T06:41:33.372Z,25.57
2018-08-03T06:42:33.411Z,25.62
2018-08-03T06:43:33.451Z,25.73
2018-08-03T06:44:33.492Z,25.87
2018-08-03T06:45:33.528Z,25.87
2018-08-03T06:46:33.568Z,25.87
2018-08-03T06:47:33.608Z,25.97
2018-08-03T06:48:33.744Z,26.02
2018-08-03T06:49:33.686Z,26.02
2018-08-03T06:50:33.725Z,25.98
2018-08-03T06:51:33.973Z,26.05
2018-08-03T06:52:33.803Z,26.10
2018-08-03T06:53:33.843Z,26.26
2018-08-03T06:54:33.883Z,26.35
2018-08-03T06:55:33.923Z,26.32
2018-08-03T06:56:33.962Z,26.45
2018-08-03T06:57:34.085Z,26.55
2018-08-03T06:58:34.044Z,26.63
2018-08-03T06:59:34.082Z,26.76
2018-08-03T07:00:34.125Z,26.69
2018-08-03T07:01:34.160Z,26.57
2018-08-03T07:02:34.201Z,26.62
2018-08-03T07:03:34.242Z,26.65
2018-08-03T07:04:34.328Z,26.67
2018-08-03T07:05:34.320Z,26.63
2018-08-03T07:06:34.360Z,26.60
2018-08-03T07:07:34.400Z,26.54
2018-08-03T07:08:34.493Z,26.44
2018-08-03T07:09:34.480Z,26.40
2018-08-03T07:10:34.520Z,26.32
2018-08-03T07:11:34.560Z,26.39
2018-08-03T07:12:34.603Z,26.13
2018-08-03T07:13:34.639Z,26.28
2018-08-03T07:14:34.703Z,26.12
2018-08-03T07:15:34.720Z,26.23
2018-08-03T07:16:34.760Z,26.25
2018-08-03T07:17:34.799Z,26.21
2018-08-03T07:18:34.839Z,26.30
2018-08-03T07:19:34.879Z,26.36
2018-08-03T07:20:35.052Z,26.40
2018-08-03T07:21:34.958Z,26.44
2018-08-03T07:22:34.999Z,26.50
2018-08-03T07:23:35.039Z,26.33
2018-08-03T07:24:35.078Z,26.33
2018-08-03T07:25:35.118Z,26.35
2018-08-03T07:26:35.158Z,26.30
2018-08-03T07:27:35.199Z,26.39
2018-08-03T07:28:35.236Z,26.29
2018-08-03T07:29:35.277Z,26.52
2018-08-03T07:30:35.318Z,26.51
2018-08-03T07:31:35.411Z,26.60
2018-08-03T07:32:35.400Z,26.48
2018-08-03T07:33:35.436Z,26.65
2018-08-03T07:34:35.476Z,26.73
2018-08-03T07:35:35.517Z,26.84
2018-08-03T07:36:35.556Z,27.00
2018-08-03T07:37:35.595Z,27.02
2018-08-03T07:38:35.638Z,26.92
2018-08-03T07:39:35.675Z,26.97
2018-08-03T07:40:35.717Z,26.92
2018-08-03T07:41:35.754Z,27.13
2018-08-03T07:42:35.795Z,27.12
2018-08-03T07:43:35.898Z,26.99
2018-08-03T07:44:35.894Z,26.97
2018-08-03T07:45:35.915Z,26.99
2018-08-03T07:46:35.954Z,27.06
2018-08-03T07:47:35.995Z,27.09
2018-08-03T07:48:36.035Z,26.97
2018-08-03T07:49:36.075Z,27.09
2018-08-03T07:50:36.115Z,27.24
2018-08-03T07:51:36.157Z,27.18
2018-08-03T07:52:36.243Z,27.19
2018-08-03T07:53:36.240Z,27.14
2018-08-03T07:54:36.275Z,27.43
2018-08-03T07:55:36.317Z,27.50
2018-08-03T07:56:36.356Z,27.43
2018-08-03T07:57:36.396Z,27.46
2018-08-03T07:58:36.436Z,27.40
2018-08-03T07:59:36.477Z,27.49
2018-08-03T08:00:36.518Z,27.54
2018-08-03T08:01:36.556Z,27.65
2018-08-03T08:02:36.597Z,27.85
2018-08-03T08:03:36.638Z,27.79
2018-08-03T08:04:36.679Z,27.77
2018-08-03T08:05:36.717Z,27.77
2018-08-03T08:06:36.759Z,27.69
2018-08-03T08:07:36.800Z,27.67
2018-08-03T08:08:36.839Z,27.85
2018-08-03T08:09:36.943Z,27.87
2018-08-03T08:10:36.921Z,27.84
2018-08-03T08:11:36.963Z,27.81
2018-08-03T08:12:37.003Z,27.99
2018-08-03T08:13:37.042Z,27.96
2018-08-03T08:14:37.083Z,28.18
2018-08-03T08:15:37.150Z,28.18
2018-08-03T08:16:37.164Z,28.09
2018-08-03T08:17:37.204Z,28.02
2018-08-03T08:18:37.246Z,28.11
2018-08-03T08:19:37.287Z,28.17
2018-08-03T08:20:37.328Z,28.31
2018-08-03T08:21:37.367Z,28.27
2018-08-03T08:22:37.408Z,28.33
2018-08-03T08:23:37.450Z,28.52
2018-08-03T08:24:37.490Z,28.48
2018-08-03T08:25:37.530Z,28.76
2018-08-03T08:26:37.571Z,28.83
2018-08-03T08:27:37.612Z,28.93
2018-08-03T08:28:37.656Z,29.14
2018-08-03T08:29:37.695Z,29.27
2018-08-03T08:30:37.735Z,29.24
2018-08-03T08:31:37.791Z,28.96
2018-08-03T08:32:37.819Z,29.28
2018-08-03T08:33:37.859Z,29.37
2018-08-03T08:34:37.908Z,29.33
2018-08-03T08:35:37.942Z,29.52
2018-08-03T08:36:37.984Z,29.57
2018-08-03T08:37:38.023Z,29.57
2018-08-03T08:38:38.065Z,29.55
2018-08-03T08:39:38.107Z,29.45
2018-08-03T08:40:38.149Z,29.63
2018-08-03T08:41:38.190Z,29.82
2018-08-03T08:42:38.232Z,29.98
2018-08-03T08:43:38.326Z,29.95
2018-08-03T08:44:38.315Z,29.83
2018-08-03T08:45:38.356Z,29.94
2018-08-03T08:46:38.397Z,30.13
2018-08-03T08:47:38.440Z,29.87
2018-08-03T08:48:38.483Z,29.97
2018-08-03T08:49:38.524Z,30.15
2018-08-03T08:50:38.568Z,30.16
2018-08-03T08:51:38.607Z,30.26
2018-08-03T08:52:38.649Z,30.11
2018-08-03T08:53:38.690Z,30.26
2018-08-03T08:54:38.791Z,30.23
2018-08-03T08:55:38.776Z,30.35
2018-08-03T08:56:38.818Z,30.49
2018-08-03T08:57:38.859Z,30.53
2018-08-03T08:58:38.903Z,30.72
2018-08-03T08:59:39.000Z,30.76
2018-08-03T09:00:38.987Z,30.86
2018-08-03T09:01:39.030Z,30.99
2018-08-03T09:02:39.296Z,31.06
2018-08-03T09:03:39.114Z,31.31
2018-08-03T09:04:39.157Z,31.36
2018-08-03T09:05:39.199Z,31.62
2018-08-03T09:06:39.244Z,31.85
2018-08-03T09:07:39.333Z,31.85
2018-08-03T09:08:39.328Z,32.04
2018-08-03T09:09:39.390Z,31.73
2018-08-03T09:10:39.412Z,31.95
2018-08-03T09:11:39.456Z,32.13
2018-08-03T09:12:39.558Z,32.01
2018-08-03T09:13:39.945Z,32.08
2018-08-03T09:14:39.584Z,32.10
2018-08-03T09:15:39.649Z,32.06
2018-08-03T09:16:39.671Z,32.06
2018-08-03T09:17:39.714Z,31.99
2018-08-03T09:18:39.770Z,32.13
2018-08-03T09:19:39.801Z,32.40
2018-08-03T09:20:39.844Z,32.25
2018-08-03T09:21:39.886Z,32.30
2018-08-03T09:22:39.931Z,32.32
2018-08-03T09:23:39.974Z,32.52
2018-08-03T09:24:40.102Z,32.72
2018-08-03T09:25:40.061Z,32.84
2018-08-03T09:26:40.104Z,32.65
2018-08-03T09:27:40.149Z,32.65
2018-08-03T09:28:40.193Z,32.65
2018-08-03T09:29:40.236Z,32.75
2018-08-03T09:30:40.278Z,32.63
2018-08-03T09:31:40.323Z,32.81
2018-08-03T09:32:40.373Z,32.96
2018-08-03T09:33:40.411Z,33.31
2018-08-03T09:34:40.464Z,33.35
2018-08-03T09:35:40.500Z,33.61
2018-08-03T09:36:40.545Z,33.81
2018-08-03T09:37:40.587Z,33.91
2018-08-03T09:38:40.632Z,33.60
2018-08-03T09:39:40.676Z,33.76
2018-08-03T09:40:40.722Z,33.90
2018-08-03T09:41:40.767Z,33.90
2018-08-03T09:42:40.809Z,33.81
2018-08-03T09:43:40.853Z,33.82
2018-08-03T09:44:40.898Z,34.00
2018-08-03T09:45:40.944Z,33.63
2018-08-03T09:46:40.986Z,33.93
2018-08-03T09:47:41.032Z,33.87
2018-08-03T09:48:41.076Z,33.87
2018-08-03T09:49:41.120Z,33.91
2018-08-03T09:50:41.168Z,34.10
2018-08-03T09:51:41.214Z,34.13
2018-08-03T09:52:41.256Z,34.27
2018-08-03T09:53:41.321Z,34.32
2018-08-03T09:54:41.345Z,34.50
2018-08-03T09:55:41.389Z,34.30
2018-08-03T09:56:41.434Z,34.21
2018-08-03T09:57:41.478Z,34.25
2018-08-03T09:58:41.524Z,34.09
2018-08-03T09:59:41.568Z,34.39
2018-08-03T10:00:41.614Z,34.50
2018-08-03T10:01:41.661Z,34.58
2018-08-03T10:02:41.704Z,34.80
2018-08-03T10:03:41.748Z,34.77
2018-08-03T10:04:41.794Z,34.77
2018-08-03T10:05:41.839Z,34.52
2018-08-03T10:06:41.885Z,34.69
2018-08-03T10:07:41.930Z,34.42
2018-08-03T10:08:41.976Z,34.64
2018-08-03T10:09:42.348Z,34.65
2018-08-03T10:11:42.110Z,34.78
2018-08-03T10:12:42.190Z,35.14
2018-08-03T10:13:42.203Z,35.65
2018-08-03T10:14:42.246Z,35.55
2018-08-03T10:15:42.293Z,35.89
2018-08-03T10:16:42.338Z,36.07
2018-08-03T10:17:42.408Z,36.29
2018-08-03T10:18:42.430Z,36.66
2018-08-03T10:19:42.480Z,37.17
2018-08-03T10:20:42.523Z,36.94
2018-08-03T10:21:42.569Z,37.15
2018-08-03T10:22:42.617Z,37.57
2018-08-03T10:23:42.894Z,38.46
2018-08-03T10:24:42.714Z,39.29
2018-08-03T10:25:42.761Z,38.52
2018-08-03T10:26:42.811Z,38.91
2018-08-03T10:27:42.860Z,39.28
2018-08-03T10:28:42.910Z,39.55
2018-08-03T10:29:42.980Z,40.06
2018-08-03T10:30:43.009Z,40.32
2018-08-03T10:31:43.060Z,40.80
2018-08-03T10:32:43.109Z,40.99
2018-08-03T10:33:43.162Z,41.80
2018-08-03T10:34:43.212Z,42.01
2018-08-03T10:35:43.262Z,42.09
2018-08-03T10:36:43.315Z,42.11
2018-08-03T10:37:43.366Z,41.74
2018-08-03T10:38:43.418Z,42.57
2018-08-03T10:39:43.472Z,41.99
2018-08-03T10:40:43.526Z,42.31
2018-08-03T10:41:43.576Z,41.93
2018-08-03T10:42:43.691Z,42.68
2018-08-03T10:43:43.683Z,41.25
2018-08-03T10:44:43.736Z,39.62
2018-08-03T10:45:43.789Z,39.81
2018-08-03T10:46:43.842Z,40.38
2018-08-03T10:47:43.896Z,40.82
2018-08-03T10:48:43.976Z,41.23
2018-08-03T10:49:44.002Z,41.63
2018-08-03T10:50:44.055Z,41.93
2018-08-03T10:51:44.111Z,41.89
2018-08-03T10:52:44.166Z,42.04
2018-08-03T10:53:44.218Z,41.99
2018-08-03T10:54:44.277Z,41.70
2018-08-03T10:55:44.325Z,41.84
2018-08-03T10:56:44.381Z,42.78
2018-08-03T10:57:44.433Z,42.43
2018-08-03T10:58:44.487Z,42.46
2018-08-03T10:59:44.542Z,42.37
2018-08-03T11:00:44.596Z,42.35
2018-08-03T11:01:44.664Z,42.01
2018-08-03T11:02:44.705Z,42.09
2018-08-03T11:03:44.759Z,40.69
2018-08-03T11:04:44.814Z,40.95
2018-08-03T11:05:44.868Z,40.54
2018-08-03T11:06:44.926Z,41.23
2018-08-03T11:07:44.976Z,42.16
2018-08-03T11:08:45.032Z,42.36
2018-08-03T11:09:45.090Z,43.22
2018-08-03T11:10:45.140Z,43.02
2018-08-03T11:11:45.195Z,43.08
2018-08-03T11:12:45.248Z,42.95
2018-08-03T11:13:45.366Z,43.05
2018-08-03T11:14:45.358Z,43.54
2018-08-03T11:15:45.416Z,43.83
2018-08-03T11:16:45.468Z,43.86
2018-08-03T11:17:45.521Z,43.87
2018-08-03T11:18:45.577Z,43.66
2018-08-03T11:19:45.641Z,43.68
2018-08-03T11:20:45.690Z,43.02
2018-08-03T11:21:45.764Z,43.53
2018-08-03T11:22:45.798Z,44.03
2018-08-03T11:23:45.853Z,44.56
2018-08-03T11:24:45.908Z,45.16
2018-08-03T11:25:45.963Z,44.24
2018-08-03T11:26:46.019Z,44.18
2018-08-03T11:27:46.277Z,44.07
2018-08-03T11:28:46.130Z,44.19
2018-08-03T11:29:46.239Z,43.90
2018-08-03T11:30:46.241Z,43.00
2018-08-03T11:31:46.298Z,43.27
2018-08-03T11:32:46.353Z,43.68
2018-08-03T11:33:46.408Z,43.54
2018-08-03T11:34:46.465Z,43.90
2018-08-03T11:35:46.521Z,44.12
2018-08-03T11:36:46.577Z,43.76
2018-08-03T11:37:46.633Z,43.66
2018-08-03T11:38:46.690Z,43.08
2018-08-03T11:39:46.748Z,43.64
2018-08-03T11:40:46.854Z,44.39
2018-08-03T11:41:46.855Z,42.96
2018-08-03T11:42:46.911Z,43.30
2018-08-03T11:44:47.050Z,42.84
2018-08-03T11:45:47.118Z,43.57
2018-08-03T11:46:47.157Z,43.57
2018-08-03T11:48:47.248Z,43.02
2018-08-03T11:49:47.305Z,43.45
2018-08-03T11:50:47.359Z,43.83
2018-08-03T11:51:47.416Z,44.03
2018-08-03T11:52:47.472Z,43.40
2018-08-03T11:53:47.527Z,43.56
2018-08-03T11:54:47.583Z,43.50
2018-08-03T11:55:47.642Z,43.86
2018-08-03T11:56:47.699Z,41.55
2018-08-03T11:57:47.751Z,42.17
2018-08-03T11:58:47.810Z,42.54
2018-08-03T11:59:47.864Z,43.45
2018-08-03T12:00:47.945Z,43.42
2018-08-03T12:01:47.995Z,43.93
2018-08-03T12:02:48.029Z,44.92
2018-08-03T12:03:48.085Z,45.13
2018-08-03T12:04:48.143Z,44.98
2018-08-03T12:05:48.197Z,44.73
2018-08-03T12:06:48.253Z,45.48
2018-08-03T12:07:48.309Z,45.04
2018-08-03T12:08:48.366Z,42.74
2018-08-03T12:09:48.421Z,41.42
2018-08-03T12:10:48.477Z,42.62
2018-08-03T12:11:48.534Z,42.99
2018-08-03T12:12:48.589Z,43.28
2018-08-03T12:13:48.644Z,42.20
2018-08-03T12:14:48.700Z,42.49
2018-08-03T12:15:48.756Z,40.98
2018-08-03T12:16:48.815Z,40.19
2018-08-03T12:17:48.894Z,40.51
2018-08-03T12:18:48.920Z,41.74
2018-08-03T12:19:48.973Z,42.33
2018-08-03T12:20:49.028Z,40.38
2018-08-03T12:21:49.135Z,39.67
2018-08-03T12:22:49.135Z,39.28
2018-08-03T12:23:52.879Z,38.90
2018-08-03T12:24:49.241Z,40.13
2018-08-03T12:25:49.295Z,41.44
2018-08-03T12:26:49.365Z,42.87
2018-08-03T12:27:49.405Z,43.86
2018-08-03T12:28:49.453Z,44.46
2018-08-03T12:29:49.508Z,44.86
2018-08-03T12:30:49.559Z,44.97
2018-08-03T12:31:49.612Z,44.48
2018-08-03T12:32:49.713Z,44.56
2018-08-03T12:33:49.718Z,44.68
2018-08-03T12:34:49.775Z,44.70
2018-08-03T12:35:49.827Z,44.82
2018-08-03T12:36:49.881Z,45.24
2018-08-03T12:37:49.935Z,43.40
2018-08-03T12:38:49.991Z,43.35
2018-08-03T12:39:50.044Z,41.91
2018-08-03T12:40:50.112Z,41.42
2018-08-03T12:41:50.152Z,40.22
2018-08-03T12:42:50.206Z,40.29
2018-08-03T12:43:50.260Z,42.52
2018-08-03T12:44:50.315Z,43.08
2018-08-03T12:45:50.406Z,43.30
2018-08-03T12:46:50.439Z,43.83
2018-08-03T12:47:50.474Z,44.50
2018-08-03T12:48:50.528Z,45.48
2018-08-03T12:49:50.600Z,46.14
2018-08-03T12:50:50.655Z,45.93
2018-08-03T12:51:50.710Z,45.72
2018-08-03T12:52:50.767Z,45.54
2018-08-03T12:53:50.799Z,46.76
2018-08-03T12:54:50.853Z,46.14
2018-08-03T12:55:50.908Z,46.08
2018-08-03T12:56:50.963Z,46.72
2018-08-03T12:57:51.018Z,46.47
2018-08-03T12:58:51.073Z,46.37
2018-08-03T12:59:51.140Z,46.37
2018-08-03T13:00:51.183Z,45.45
2018-08-03T13:01:51.239Z,45.79
2018-08-03T13:02:51.297Z,44.76
2018-08-03T13:03:51.351Z,45.02
2018-08-03T13:04:51.407Z,44.62
2018-08-03T13:05:51.468Z,45.53
2018-08-03T13:06:51.518Z,45.85
2018-08-03T13:07:51.778Z,46.54
2018-08-03T13:08:51.635Z,46.69
2018-08-03T13:09:51.690Z,46.53
2018-08-03T13:10:51.742Z,46.01